Blidosund — SDKG — position and weather

sailwx.info

Track history (hours):
 
Tides and Currents Weather Stations Pressure Air Temp Water Temp Dewpoint Dewpoint Depression Visibility Wind Speed Wind Dir Waves Ship Positions

Blidosund

Last reported at 2014-Sep-22 07:07 UTC. Time now 2014-Sep-23 00:22 UTC.
Position N 59°20' E 018°05'.

Length 35 m; draft 3 m.

Type: Passenger vessel. MMSI: 265522680.

Date/timePositionNaut miles runAvg speedWind from/ knotsBaromVisibWave heightAir tempDewpointWater temp
2014-Sep-22 07:07N 59°20' E 018°05'0 0.0
2014-Sep-21 03:22N 59°20' E 018°05'0 0.0
2014-Sep-21 01:16N 59°20' E 018°05'0 0.0
2014-Sep-21 00:13N 59°20' E 018°05'0 0.0
2014-Sep-20 23:33N 59°20' E 018°05'0 0.0
2014-Sep-19 20:11N 59°20' E 018°05'1 1.5
2014-Sep-19 19:11N 59°18' E 018°04'1 2.0
2014-Sep-19 18:34N 59°19' E 018°03'1 0.7
2014-Sep-19 17:33N 59°19' E 018°02'2 0.2
2014-Sep-19 11:23N 59°20' E 018°05'0 0.0
2014-Sep-19 09:32N 59°20' E 018°05'0 0.0
2014-Sep-19 07:33N 59°20' E 018°05'0 0.0
2014-Sep-19 01:27N 59°20' E 018°05'0 0.0
2014-Sep-18 20:11N 59°20' E 018°05'1 1.7
2014-Sep-18 19:19N 59°18' E 018°04'1 1.6
2014-Sep-18 18:33N 59°19' E 018°03'1 1.1
2014-Sep-18 17:34N 59°19' E 018°01'2 2.0
2014-Sep-18 16:33N 59°20' E 018°05'0 0.0
2014-Sep-18 13:21N 59°20' E 018°05'0 0.0
2014-Sep-18 10:30N 59°20' E 018°05'0 0.0
2014-Sep-18 09:32N 59°20' E 018°05'0 0.0
2014-Sep-18 08:19N 59°20' E 018°05'0 0.0
2014-Sep-18 05:33N 59°20' E 018°05'0 0.0
2014-Sep-18 04:30N 59°20' E 018°05'0 0.0
2014-Sep-18 03:28N 59°20' E 018°05'0 0.0
2014-Sep-18 02:30N 59°20' E 018°05'0 0.0
2014-Sep-18 01:33N 59°20' E 018°05'0 0.0
2014-Sep-18 00:33N 59°20' E 018°05'0 0.0
2014-Sep-17 23:32N 59°20' E 018°05'0 0.0
2014-Sep-17 22:30N 59°20' E 018°05'0 0.0
2014-Sep-17 21:32N 59°20' E 018°05'0 0.0
2014-Sep-17 20:22N 59°20' E 018°05'3 3.4
2014-Sep-17 19:33N 59°20' E 018°10'1 0.3
2014-Sep-17 17:16N 59°20' E 018°11'3 4.8
2014-Sep-17 16:33N 59°20' E 018°05'0 0.0
2014-Sep-17 08:16N 59°20' E 018°05'0 0.0
2014-Sep-16 20:09N 59°20' E 018°05'3 0.9
2014-Sep-16 17:04N 59°20' E 018°10'3 0.5
2014-Sep-16 11:23N 59°20' E 018°05'0 0.0
2014-Sep-16 10:23N 59°20' E 018°05'0 0.0
2014-Sep-15 12:09N 59°20' E 018°05'0 0.0
2014-Sep-15 10:16N 59°20' E 018°05'0 0.0
2014-Sep-15 09:17N 59°20' E 018°05'0 0.0
2014-Sep-15 08:28N 59°20' E 018°05'0 0.0
2014-Sep-15 07:18N 59°20' E 018°05'0 0.0
2014-Sep-15 06:30N 59°20' E 018°05'0 0.0
2014-Sep-15 05:27N 59°20' E 018°05'0 0.0
2014-Sep-15 04:31N 59°20' E 018°05'0 0.0
2014-Sep-15 03:33N 59°20' E 018°05'0 0.0
2014-Sep-15 01:33N 59°20' E 018°05'0 0.0
2014-Sep-15 00:18N 59°20' E 018°05'0 0.0
2014-Sep-14 21:33N 59°20' E 018°05'0 0.0
2014-Sep-14 17:06N 59°20' E 018°05'0 0.0
2014-Sep-14 16:33N 59°20' E 018°05'0 0.0
2014-Sep-14 15:26N 59°20' E 018°05'0 0.0
2014-Sep-14 13:33N 59°20' E 018°05'0 0.0
2014-Sep-14 11:29N 59°20' E 018°05'0 0.0
2014-Sep-14 10:28N 59°20' E 018°05'0 0.0
2014-Sep-14 09:31N 59°20' E 018°05'0 0.0
2014-Sep-14 08:32N 59°20' E 018°05'0 0.0
2014-Sep-14 06:26N 59°20' E 018°05'0 0.0
2014-Sep-14 05:30N 59°20' E 018°05'0 0.0
2014-Sep-14 04:32N 59°20' E 018°05'0 0.0
2014-Sep-14 03:33N 59°20' E 018°05'0 0.0
2014-Sep-14 02:32N 59°20' E 018°05'0 0.0
2014-Sep-14 01:33N 59°20' E 018°05'0 0.0
2014-Sep-13 21:33N 59°20' E 018°05'0 0.0
2014-Sep-13 20:32N 59°20' E 018°05'4 1.1
2014-Sep-13 17:13N 59°20' E 018°12'4 5.3
2014-Sep-13 16:33N 59°20' E 018°05'0 0.0
2014-Sep-13 05:19N 59°20' E 018°05'0 0.0
2014-Sep-13 03:05N 59°20' E 018°05'0 0.0
2014-Sep-13 01:22N 59°20' E 018°05'0 0.0
2014-Sep-13 00:16N 59°20' E 018°05'0 0.0
2014-Sep-12 23:16N 59°20' E 018°05'0 0.0
2014-Sep-12 22:31N 59°20' E 018°05'0 0.0
2014-Sep-12 20:13N 59°20' E 018°05'3 4.6
2014-Sep-12 19:33N 59°20' E 018°10'1 0.2
2014-Sep-12 17:12N 59°20' E 018°12'4 2.0
2014-Sep-12 15:24N 59°20' E 018°05'  
Track history (hours):
 
Tides and Currents Weather Stations Pressure Air Temp Water Temp Dewpoint Dewpoint Depression Visibility Wind Speed Wind Dir Waves Ship Positions

Blidosund

Last reported at 2014-Sep-22 07:07 UTC. Time now 2014-Sep-23 00:22 UTC.
Position N 59°20' E 018°05'.

Length 35 m; draft 3 m.

Type: Passenger vessel. MMSI: 265522680.

Date/timePositionNaut miles runAvg speedWind from/ knotsBaromVisibWave heightAir tempDewpointWater temp
2014-Sep-22 07:07N 59°20' E 018°05'0 0.0
2014-Sep-21 03:22N 59°20' E 018°05'0 0.0
2014-Sep-21 01:16N 59°20' E 018°05'0 0.0
2014-Sep-21 00:13N 59°20' E 018°05'0 0.0
2014-Sep-20 23:33N 59°20' E 018°05'0 0.0
2014-Sep-19 20:11N 59°20' E 018°05'1 1.5
2014-Sep-19 19:11N 59°18' E 018°04'1 2.0
2014-Sep-19 18:34N 59°19' E 018°03'1 0.7
2014-Sep-19 17:33N 59°19' E 018°02'2 0.2
2014-Sep-19 11:23N 59°20' E 018°05'0 0.0
2014-Sep-19 09:32N 59°20' E 018°05'0 0.0
2014-Sep-19 07:33N 59°20' E 018°05'0 0.0
2014-Sep-19 01:27N 59°20' E 018°05'0 0.0
2014-Sep-18 20:11N 59°20' E 018°05'1 1.7
2014-Sep-18 19:19N 59°18' E 018°04'1 1.6
2014-Sep-18 18:33N 59°19' E 018°03'1 1.1
2014-Sep-18 17:34N 59°19' E 018°01'2 2.0
2014-Sep-18 16:33N 59°20' E 018°05'0 0.0
2014-Sep-18 13:21N 59°20' E 018°05'0 0.0
2014-Sep-18 10:30N 59°20' E 018°05'0 0.0
2014-Sep-18 09:32N 59°20' E 018°05'0 0.0
2014-Sep-18 08:19N 59°20' E 018°05'0 0.0
2014-Sep-18 05:33N 59°20' E 018°05'0 0.0
2014-Sep-18 04:30N 59°20' E 018°05'0 0.0
2014-Sep-18 03:28N 59°20' E 018°05'0 0.0
2014-Sep-18 02:30N 59°20' E 018°05'0 0.0
2014-Sep-18 01:33N 59°20' E 018°05'0 0.0
2014-Sep-18 00:33N 59°20' E 018°05'0 0.0
2014-Sep-17 23:32N 59°20' E 018°05'0 0.0
2014-Sep-17 22:30N 59°20' E 018°05'0 0.0
2014-Sep-17 21:32N 59°20' E 018°05'0 0.0
2014-Sep-17 20:22N 59°20' E 018°05'3 3.4
2014-Sep-17 19:33N 59°20' E 018°10'1 0.3
2014-Sep-17 17:16N 59°20' E 018°11'3 4.8
2014-Sep-17 16:33N 59°20' E 018°05'0 0.0
2014-Sep-17 08:16N 59°20' E 018°05'0 0.0
2014-Sep-16 20:09N 59°20' E 018°05'3 0.9
2014-Sep-16 17:04N 59°20' E 018°10'3 0.5
2014-Sep-16 11:23N 59°20' E 018°05'0 0.0
2014-Sep-16 10:23N 59°20' E 018°05'0 0.0
2014-Sep-15 12:09N 59°20' E 018°05'0 0.0
2014-Sep-15 10:16N 59°20' E 018°05'0 0.0
2014-Sep-15 09:17N 59°20' E 018°05'0 0.0
2014-Sep-15 08:28N 59°20' E 018°05'0 0.0
2014-Sep-15 07:18N 59°20' E 018°05'0 0.0
2014-Sep-15 06:30N 59°20' E 018°05'0 0.0
2014-Sep-15 05:27N 59°20' E 018°05'0 0.0
2014-Sep-15 04:31N 59°20' E 018°05'0 0.0
2014-Sep-15 03:33N 59°20' E 018°05'0 0.0
2014-Sep-15 01:33N 59°20' E 018°05'0 0.0
2014-Sep-15 00:18N 59°20' E 018°05'0 0.0
2014-Sep-14 21:33N 59°20' E 018°05'0 0.0
2014-Sep-14 17:06N 59°20' E 018°05'0 0.0
2014-Sep-14 16:33N 59°20' E 018°05'0 0.0
2014-Sep-14 15:26N 59°20' E 018°05'0 0.0
2014-Sep-14 13:33N 59°20' E 018°05'0 0.0
2014-Sep-14 11:29N 59°20' E 018°05'0 0.0
2014-Sep-14 10:28N 59°20' E 018°05'0 0.0
2014-Sep-14 09:31N 59°20' E 018°05'0 0.0
2014-Sep-14 08:32N 59°20' E 018°05'0 0.0
2014-Sep-14 06:26N 59°20' E 018°05'0 0.0
2014-Sep-14 05:30N 59°20' E 018°05'0 0.0
2014-Sep-14 04:32N 59°20' E 018°05'0 0.0
2014-Sep-14 03:33N 59°20' E 018°05'0 0.0
2014-Sep-14 02:32N 59°20' E 018°05'0 0.0
2014-Sep-14 01:33N 59°20' E 018°05'0 0.0
2014-Sep-13 21:33N 59°20' E 018°05'0 0.0
2014-Sep-13 20:32N 59°20' E 018°05'4 1.1
2014-Sep-13 17:13N 59°20' E 018°12'4 5.3
2014-Sep-13 16:33N 59°20' E 018°05'0 0.0
2014-Sep-13 05:19N 59°20' E 018°05'0 0.0
2014-Sep-13 03:05N 59°20' E 018°05'0 0.0
2014-Sep-13 01:22N 59°20' E 018°05'0 0.0
2014-Sep-13 00:16N 59°20' E 018°05'0 0.0
2014-Sep-12 23:16N 59°20' E 018°05'0 0.0
2014-Sep-12 22:31N 59°20' E 018°05'0 0.0
2014-Sep-12 20:13N 59°20' E 018°05'3 4.6
2014-Sep-12 19:33N 59°20' E 018°10'1 0.2
2014-Sep-12 17:12N 59°20' E 018°12'4 2.0
2014-Sep-12 15:24N 59°20' E 018°05'  

Dump ship's entire track history